sensor_id;sensor_type;location;lat;lon;timestamp;pressure;altitude;pressure_sealevel;temperature;humidity
53619;BME280;68717;53.040;18.488;2023-08-20T00:00:06;101499.78;;;22.15;100.00
53619;BME280;68717;53.040;18.488;2023-08-20T00:00:21;101489.88;;;22.14;100.00
53619;BME280;68717;53.040;18.488;2023-08-20T00:00:55;101492.84;;;22.12;100.00
53619;BME280;68717;53.040;18.488;2023-08-20T00:01:28;101495.75;;;22.11;100.00
53619;BME280;68717;53.040;18.488;2023-08-20T00:01:42;101495.75;;;22.11;100.00
53619;BME280;68717;53.040;18.488;2023-08-20T00:01:57;101503.09;;;22.10;100.00
53619;BME280;68717;53.040;18.488;2023-08-20T00:02:11;101502.22;;;22.10;100.00
53619;BME280;68717;53.040;18.488;2023-08-20T00:02:25;101496.75;;;22.10;100.00
53619;BME280;68717;53.040;18.488;2023-08-20T00:02:42;101500.53;;;22.09;100.00
53619;BME280;68717;53.040;18.488;2023-08-20T00:02:58;101500.53;;;22.09;100.00
53619;BME280;68717;53.040;18.488;2023-08-20T00:03:12;101499.69;;;22.08;100.00
53619;BME280;68717;53.040;18.488;2023-08-20T00:03:26;101499.69;;;22.08;100.00
53619;BME280;68717;53.040;18.488;2023-08-20T00:03:40;101499.88;;;22.07;100.00
53619;BME280;68717;53.040;18.488;2023-08-20T00:03:56;101498.88;;;22.08;100.00
53619;BME280;68717;53.040;18.488;2023-08-20T00:04:10;101497.16;;;22.07;100.00
53619;BME280;68717;53.040;18.488;2023-08-20T00:04:26;101500.94;;;22.06;100.00
53619;BME280;68717;53.040;18.488;2023-08-20T00:04:39;101501.78;;;22.06;100.00
53619;BME280;68717;53.040;18.488;2023-08-20T00:04:57;101500.06;;;22.05;100.00
53619;BME280;68717;53.040;18.488;2023-08-20T00:05:12;101500.94;;;22.06;100.00
53619;BME280;68717;53.040;18.488;2023-08-20T00:05:26;101498.22;;;22.06;100.00
53619;BME280;68717;53.040;18.488;2023-08-20T00:05:40;101498.38;;;22.04;100.00
53619;BME280;68717;53.040;18.488;2023-08-20T00:05:53;101499.22;;;22.05;100.00
53619;BME280;68717;53.040;18.488;2023-08-20T00:06:06;101499.41;;;22.03;100.00
53619;BME280;68717;53.040;18.488;2023-08-20T00:06:20;101496.69;;;22.03;100.00
53619;BME280;68717;53.040;18.488;2023-08-20T00:06:34;101503.00;;;22.04;100.00
53619;BME280;68717;53.040;18.488;2023-08-20T00:06:47;101493.09;;;22.03;100.00
53619;BME280;68717;53.040;18.488;2023-08-20T00:07:00;101494.16;;;22.02;100.00
53619;BME280;68717;53.040;18.488;2023-08-20T00:07:13;101496.88;;;22.02;100.00
53619;BME280;68717;53.040;18.488;2023-08-20T00:07:29;101496.03;;;22.01;100.00
53619;BME280;68717;53.040;18.488;2023-08-20T00:07:42;101491.59;;;22.00;100.00
53619;BME280;68717;53.040;18.488;2023-08-20T00:07:56;101498.75;;;22.01;100.00
53619;BME280;68717;53.040;18.488;2023-08-20T00:08:08;101500.63;;;22.01;100.00
53619;BME280;68717;53.040;18.488;2023-08-20T00:08:21;101490.78;;;22.00;100.00
53619;BME280;68717;53.040;18.488;2023-08-20T00:08:34;101497.91;;;22.01;100.00
53619;BME280;68717;53.040;18.488;2023-08-20T00:08:47;101497.91;;;22.01;100.00
53619;BME280;68717;53.040;18.488;2023-08-20T00:09:00;101501.47;;;22.01;100.00
53619;BME280;68717;53.040;18.488;2023-08-20T00:09:13;101495.19;;;22.01;100.00
53619;BME280;68717;53.040;18.488;2023-08-20T00:09:25;101496.22;;;22.00;100.00
53619;BME280;68717;53.040;18.488;2023-08-20T00:09:39;101497.91;;;22.01;100.00
53619;BME280;68717;53.040;18.488;2023-08-20T00:09:52;101494.53;;;21.99;100.00
53619;BME280;68717;53.040;18.488;2023-08-20T00:10:06;101491.59;;;22.00;100.00
53619;BME280;68717;53.040;18.488;2023-08-20T00:10:19;101496.22;;;22.00;100.00
53619;BME280;68717;53.040;18.488;2023-08-20T00:10:32;101490.78;;;22.00;100.00
53619;BME280;68717;53.040;18.488;2023-08-20T00:10:45;101488.22;;;21.98;100.00
53619;BME280;68717;53.040;18.488;2023-08-20T00:10:57;101492.66;;;21.99;100.00
53619;BME280;68717;53.040;18.488;2023-08-20T00:11:13;101496.22;;;22.00;100.00
53619;BME280;68717;53.040;18.488;2023-08-20T00:11:26;101498.97;;;22.00;100.00
53619;BME280;68717;53.040;18.488;2023-08-20T00:11:39;101497.25;;;21.99;100.00
53619;BME280;68717;53.040;18.488;2023-08-20T00:11:52;101498.13;;;21.99;100.00
53619;BME280;68717;53.040;18.488;2023-08-20T00:12:05;101489.94;;;21.99;100.00
53619;BME280;68717;53.040;18.488;2023-08-20T00:12:18;101493.69;;;21.98;100.00
53619;BME280;68717;53.040;18.488;2023-08-20T00:12:30;101494.53;;;21.99;100.00
53619;BME280;68717;53.040;18.488;2023-08-20T00:12:43;101489.94;;;21.99;100.00
53619;BME280;68717;53.040;18.488;2023-08-20T00:12:56;101491.78;;;21.99;100.00
53619;BME280;68717;53.040;18.488;2023-08-20T00:13:08;101496.41;;;21.98;100.00
53619;BME280;68717;53.040;18.488;2023-08-20T00:13:22;101487.38;;;21.98;100.00
53619;BME280;68717;53.040;18.488;2023-08-20T00:13:34;101492.84;;;21.98;100.00
53619;BME280;68717;53.040;18.488;2023-08-20T00:13:47;101495.56;;;21.98;100.00
53619;BME280;68717;53.040;18.488;2023-08-20T00:14:00;101492.84;;;21.98;100.00
53619;BME280;68717;53.040;18.488;2023-08-20T00:14:15;101494.91;;;21.95;100.00
53619;BME280;68717;53.040;18.488;2023-08-20T00:14:53;101497.66;;;21.95;100.00
53619;BME280;68717;53.040;18.488;2023-08-20T00:15:07;101496.59;;;21.96;100.00
53619;BME280;68717;53.040;18.488;2023-08-20T00:15:21;101493.03;;;21.96;100.00
53619;BME280;68717;53.040;18.488;2023-08-20T00:15:39;101494.72;;;21.97;100.00
53619;BME280;68717;53.040;18.488;2023-08-20T00:15:52;101493.03;;;21.96;100.00
53619;BME280;68717;53.040;18.488;2023-08-20T00:16:05;101487.56;;;21.96;100.00
53619;BME280;68717;53.040;18.488;2023-08-20T00:16:20;101495.75;;;21.96;100.00
53619;BME280;68717;53.040;18.488;2023-08-20T00:16:34;101494.91;;;21.95;100.00
53619;BME280;68717;53.040;18.488;2023-08-20T00:16:47;101493.19;;;21.94;100.00
53619;BME280;68717;53.040;18.488;2023-08-20T00:17:01;101493.19;;;21.94;100.00
53619;BME280;68717;53.040;18.488;2023-08-20T00:17:14;101496.97;;;21.93;100.00
53619;BME280;68717;53.040;18.488;2023-08-20T00:17:27;101493.19;;;21.94;100.00
53619;BME280;68717;53.040;18.488;2023-08-20T00:17:41;101499.72;;;21.93;100.00
53619;BME280;68717;53.040;18.488;2023-08-20T00:17:55;101490.69;;;21.93;100.00
53619;BME280;68717;53.040;18.488;2023-08-20T00:18:08;101492.53;;;21.92;100.00
53619;BME280;68717;53.040;18.488;2023-08-20T00:18:21;101498.00;;;21.92;100.00
53619;BME280;68717;53.040;18.488;2023-08-20T00:18:35;101498.00;;;21.92;100.00
53619;BME280;68717;53.040;18.488;2023-08-20T00:18:51;101498.00;;;21.92;100.00
53619;BME280;68717;53.040;18.488;2023-08-20T00:19:04;101495.28;;;21.92;100.00
53619;BME280;68717;53.040;18.488;2023-08-20T00:19:17;101491.72;;;21.92;100.00
53619;BME280;68717;53.040;18.488;2023-08-20T00:19:31;101495.28;;;21.92;100.00
53619;BME280;68717;53.040;18.488;2023-08-20T00:19:44;101497.16;;;21.92;100.00
53619;BME280;68717;53.040;18.488;2023-08-20T00:19:58;101493.41;;;21.93;100.00
53619;BME280;68717;53.040;18.488;2023-08-20T00:20:13;101493.59;;;21.91;100.00
53619;BME280;68717;53.040;18.488;2023-08-20T00:20:26;101500.72;;;21.92;100.00
53619;BME280;68717;53.040;18.488;2023-08-20T00:20:40;101494.44;;;21.92;100.00
53619;BME280;68717;53.040;18.488;2023-08-20T00:20:54;101489.81;;;21.92;100.00
53619;BME280;68717;53.040;18.488;2023-08-20T00:21:07;101488.97;;;21.92;100.00
53619;BME280;68717;53.040;18.488;2023-08-20T00:21:20;101493.59;;;21.91;100.00
53619;BME280;68717;53.040;18.488;2023-08-20T00:21:33;101489.16;;;21.90;100.00
53619;BME280;68717;53.040;18.488;2023-08-20T00:21:48;101497.34;;;21.90;100.00
53619;BME280;68717;53.040;18.488;2023-08-20T00:22:01;101502.81;;;21.90;100.00
53619;BME280;68717;53.040;18.488;2023-08-20T00:22:14;101498.41;;;21.89;100.00
53619;BME280;68717;53.040;18.488;2023-08-20T00:22:27;101493.13;;;21.88;100.00
53619;BME280;68717;53.040;18.488;2023-08-20T00:22:40;101498.41;;;21.89;100.00
53619;BME280;68717;53.040;18.488;2023-08-20T00:22:55;101495.84;;;21.88;100.00
53619;BME280;68717;53.040;18.488;2023-08-20T00:23:08;101495.84;;;21.88;100.00
53619;BME280;68717;53.040;18.488;2023-08-20T00:23:21;101493.13;;;21.88;100.00
53619;BME280;68717;53.040;18.488;2023-08-20T00:23:35;101486.81;;;21.87;100.00
53619;BME280;68717;53.040;18.488;2023-08-20T00:23:49;101492.28;;;21.87;100.00
53619;BME280;68717;53.040;18.488;2023-08-20T00:24:03;101492.28;;;21.87;100.00
53619;BME280;68717;53.040;18.488;2023-08-20T00:24:16;101497.72;;;21.87;100.00
53619;BME280;68717;53.040;18.488;2023-08-20T00:24:29;101496.06;;;21.86;100.00
53619;BME280;68717;53.040;18.488;2023-08-20T00:24:42;101493.31;;;21.86;100.00
53619;BME280;68717;53.040;18.488;2023-08-20T00:24:55;101490.59;;;21.86;100.00
53619;BME280;68717;53.040;18.488;2023-08-20T00:25:09;101490.59;;;21.86;100.00
53619;BME280;68717;53.040;18.488;2023-08-20T00:25:23;101493.31;;;21.86;100.00
53619;BME280;68717;53.040;18.488;2023-08-20T00:25:36;101491.63;;;21.85;100.00
53619;BME280;68717;53.040;18.488;2023-08-20T00:25:50;101491.63;;;21.85;100.00
53619;BME280;68717;53.040;18.488;2023-08-20T00:26:03;101487.00;;;21.86;100.00
53619;BME280;68717;53.040;18.488;2023-08-20T00:26:18;101497.91;;;21.86;100.00
53619;BME280;68717;53.040;18.488;2023-08-20T00:26:31;101496.06;;;21.86;100.00
53619;BME280;68717;53.040;18.488;2023-08-20T00:26:45;101485.13;;;21.86;100.00
53619;BME280;68717;53.040;18.488;2023-08-20T00:26:57;101499.63;;;21.87;100.00
53619;BME280;68717;53.040;18.488;2023-08-20T00:27:10;101495.19;;;21.86;100.00
53619;BME280;68717;53.040;18.488;2023-08-20T00:27:23;101495.00;;;21.87;100.00
53619;BME280;68717;53.040;18.488;2023-08-20T00:27:35;101488.88;;;21.85;100.00
53619;BME280;68717;53.040;18.488;2023-08-20T00:27:49;101494.34;;;21.85;100.00
53619;BME280;68717;53.040;18.488;2023-08-20T00:28:01;101486.34;;;21.84;100.00
53619;BME280;68717;53.040;18.488;2023-08-20T00:28:15;101492.66;;;21.84;100.00
53619;BME280;68717;53.040;18.488;2023-08-20T00:28:28;101496.41;;;21.83;100.00
53619;BME280;68717;53.040;18.488;2023-08-20T00:28:41;101489.28;;;21.82;100.00
53619;BME280;68717;53.040;18.488;2023-08-20T00:28:53;101495.56;;;21.83;100.00
53619;BME280;68717;53.040;18.488;2023-08-20T00:29:06;101493.69;;;21.83;100.00
53619;BME280;68717;53.040;18.488;2023-08-20T00:29:18;101486.72;;;21.81;100.00
53619;BME280;68717;53.040;18.488;2023-08-20T00:29:31;101489.47;;;21.81;100.00
53619;BME280;68717;53.040;18.488;2023-08-20T00:29:44;101491.13;;;21.82;100.00
53619;BME280;68717;53.040;18.488;2023-08-20T00:29:56;101490.28;;;21.81;100.00
53619;BME280;68717;53.040;18.488;2023-08-20T00:30:10;101494.06;;;21.80;100.00
53619;BME280;68717;53.040;18.488;2023-08-20T00:30:24;101492.19;;;21.81;100.00
53619;BME280;68717;53.040;18.488;2023-08-20T00:30:36;101491.34;;;21.80;100.00
53619;BME280;68717;53.040;18.488;2023-08-20T00:30:49;101483.34;;;21.79;100.00
53619;BME280;68717;53.040;18.488;2023-08-20T00:31:02;101485.06;;;21.80;100.00
53619;BME280;68717;53.040;18.488;2023-08-20T00:31:14;101495.97;;;21.80;100.00
53619;BME280;68717;53.040;18.488;2023-08-20T00:31:27;101487.78;;;21.80;100.00
53619;BME280;68717;53.040;18.488;2023-08-20T00:31:41;101490.50;;;21.80;100.00
53619;BME280;68717;53.040;18.488;2023-08-20T00:31:53;101493.41;;;21.78;100.00
53619;BME280;68717;53.040;18.488;2023-08-20T00:32:06;101493.41;;;21.78;100.00
53619;BME280;68717;53.040;18.488;2023-08-20T00:32:20;101487.97;;;21.78;100.00
53619;BME280;68717;53.040;18.488;2023-08-20T00:32:33;101487.97;;;21.78;100.00
53619;BME280;68717;53.040;18.488;2023-08-20T00:32:45;101487.97;;;21.78;100.00
53619;BME280;68717;53.040;18.488;2023-08-20T00:32:58;101490.69;;;21.78;100.00
53619;BME280;68717;53.040;18.488;2023-08-20T00:33:11;101484.19;;;21.79;100.00
53619;BME280;68717;53.040;18.488;2023-08-20T00:33:24;101485.41;;;21.77;100.00
53619;BME280;68717;53.040;18.488;2023-08-20T00:33:37;101483.53;;;21.77;100.00
53619;BME280;68717;53.040;18.488;2023-08-20T00:33:50;101484.38;;;21.78;100.00
53619;BME280;68717;53.040;18.488;2023-08-20T00:34:18;101487.28;;;21.76;100.00
53619;BME280;68717;53.040;18.488;2023-08-20T00:34:30;101488.13;;;21.77;100.00
53619;BME280;68717;53.040;18.488;2023-08-20T00:34:43;101484.56;;;21.76;100.00
53619;BME280;68717;53.040;18.488;2023-08-20T00:34:56;101490.03;;;21.76;100.00
53619;BME280;68717;53.040;18.488;2023-08-20T00:35:09;101488.31;;;21.75;100.00
53619;BME280;68717;53.040;18.488;2023-08-20T00:35:22;101487.28;;;21.76;100.00
53619;BME280;68717;53.040;18.488;2023-08-20T00:35:35;101488.31;;;21.75;100.00
53619;BME280;68717;53.040;18.488;2023-08-20T00:35:47;101481.84;;;21.76;100.00
53619;BME280;68717;53.040;18.488;2023-08-20T00:36:00;101482.84;;;21.75;100.00
53619;BME280;68717;53.040;18.488;2023-08-20T00:36:13;101488.31;;;21.75;100.00
53619;BME280;68717;53.040;18.488;2023-08-20T00:36:26;101488.31;;;21.75;100.00
53619;BME280;68717;53.040;18.488;2023-08-20T00:36:39;101483.72;;;21.75;100.00
53619;BME280;68717;53.040;18.488;2023-08-20T00:36:52;101486.63;;;21.74;100.00
53619;BME280;68717;53.040;18.488;2023-08-20T00:37:04;101488.31;;;21.75;100.00
53619;BME280;68717;53.040;18.488;2023-08-20T00:37:17;101487.28;;;21.76;100.00
53619;BME280;68717;53.040;18.488;2023-08-20T00:37:30;101481.66;;;21.78;100.00
53619;BME280;68717;53.040;18.488;2023-08-20T00:37:43;101484.38;;;21.78;100.00
53619;BME280;68717;53.040;18.488;2023-08-20T00:37:57;101484.56;;;21.76;100.00
53619;BME280;68717;53.040;18.488;2023-08-20T00:38:09;101487.28;;;21.76;100.00
53619;BME280;68717;53.040;18.488;2023-08-20T00:38:23;101485.59;;;21.75;100.00
53619;BME280;68717;53.040;18.488;2023-08-20T00:38:36;101477.41;;;21.75;100.00
53619;BME280;68717;53.040;18.488;2023-08-20T00:38:48;101489.38;;;21.74;100.00
53619;BME280;68717;53.040;18.488;2023-08-20T00:39:01;101483.06;;;21.73;100.00
53619;BME280;68717;53.040;18.488;2023-08-20T00:39:13;101482.19;;;21.73;100.00
53619;BME280;68717;53.040;18.488;2023-08-20T00:39:27;101485.97;;;21.72;100.00
53619;BME280;68717;53.040;18.488;2023-08-20T00:39:40;101481.56;;;21.71;100.00
53619;BME280;68717;53.040;18.488;2023-08-20T00:39:53;101486.16;;;21.70;100.00
53619;BME280;68717;53.040;18.488;2023-08-20T00:40:07;101489.94;;;21.69;100.00
53619;BME280;68717;53.040;18.488;2023-08-20T00:40:22;101481.94;;;21.68;100.00
53619;BME280;68717;53.040;18.488;2023-08-20T00:40:34;101487.38;;;21.68;100.00
53619;BME280;68717;53.040;18.488;2023-08-20T00:40:47;101485.69;;;21.67;100.00
53619;BME280;68717;53.040;18.488;2023-08-20T00:41:00;101484.84;;;21.66;100.00
53619;BME280;68717;53.040;18.488;2023-08-20T00:41:13;101478.53;;;21.66;100.00
53619;BME280;68717;53.040;18.488;2023-08-20T00:41:27;101484.00;;;21.66;100.00
53619;BME280;68717;53.040;18.488;2023-08-20T00:41:40;101488.59;;;21.65;100.00
53619;BME280;68717;53.040;18.488;2023-08-20T00:41:52;101487.78;;;21.65;100.00
53619;BME280;68717;53.040;18.488;2023-08-20T00:42:05;101487.78;;;21.65;100.00
53619;BME280;68717;53.040;18.488;2023-08-20T00:42:19;101493.22;;;21.65;100.00
53619;BME280;68717;53.040;18.488;2023-08-20T00:42:32;101489.63;;;21.64;100.00
53619;BME280;68717;53.040;18.488;2023-08-20T00:42:44;101487.94;;;21.63;100.00
53619;BME280;68717;53.040;18.488;2023-08-20T00:42:57;101488.13;;;21.62;100.00
53619;BME280;68717;53.040;18.488;2023-08-20T00:43:10;101481.66;;;21.63;100.00
53619;BME280;68717;53.040;18.488;2023-08-20T00:43:22;101491.72;;;21.62;100.00
53619;BME280;68717;53.040;18.488;2023-08-20T00:43:35;101488.13;;;21.62;100.00
53619;BME280;68717;53.040;18.488;2023-08-20T00:43:49;101487.28;;;21.61;100.00
53619;BME280;68717;53.040;18.488;2023-08-20T00:44:02;101487.28;;;21.61;100.00
53619;BME280;68717;53.040;18.488;2023-08-20T00:44:15;101481.00;;;21.61;100.00
53619;BME280;68717;53.040;18.488;2023-08-20T00:44:28;101489.19;;;21.61;100.00
53619;BME280;68717;53.040;18.488;2023-08-20T00:44:40;101490.00;;;21.61;100.00
53619;BME280;68717;53.040;18.488;2023-08-20T00:44:54;101480.16;;;21.60;100.00
53619;BME280;68717;53.040;18.488;2023-08-20T00:45:07;101484.72;;;21.60;100.00
53619;BME280;68717;53.040;18.488;2023-08-20T00:45:20;101488.13;;;21.62;100.00
53619;BME280;68717;53.040;18.488;2023-08-20T00:45:33;101481.81;;;21.61;100.00
53619;BME280;68717;53.040;18.488;2023-08-20T00:45:48;101480.16;;;21.60;100.00
53619;BME280;68717;53.040;18.488;2023-08-20T00:46:01;101486.44;;;21.61;100.00
53619;BME280;68717;53.040;18.488;2023-08-20T00:46:14;101481.00;;;21.61;100.00
53619;BME280;68717;53.040;18.488;2023-08-20T00:46:27;101479.28;;;21.60;100.00
53619;BME280;68717;53.040;18.488;2023-08-20T00:46:39;101486.44;;;21.61;100.00
53619;BME280;68717;53.040;18.488;2023-08-20T00:46:52;101486.44;;;21.61;100.00
53619;BME280;68717;53.040;18.488;2023-08-20T00:47:05;101481.00;;;21.61;100.00
53619;BME280;68717;53.040;18.488;2023-08-20T00:47:18;101481.00;;;21.61;100.00
53619;BME280;68717;53.040;18.488;2023-08-20T00:47:32;101484.56;;;21.61;100.00
53619;BME280;68717;53.040;18.488;2023-08-20T00:47:46;101482.88;;;21.60;100.00
53619;BME280;68717;53.040;18.488;2023-08-20T00:47:58;101477.41;;;21.60;100.00
53619;BME280;68717;53.040;18.488;2023-08-20T00:48:12;101486.44;;;21.61;100.00
53619;BME280;68717;53.040;18.488;2023-08-20T00:48:25;101483.72;;;21.61;100.00
53619;BME280;68717;53.040;18.488;2023-08-20T00:48:38;101487.47;;;21.60;100.00
53619;BME280;68717;53.040;18.488;2023-08-20T00:48:50;101482.88;;;21.60;100.00
53619;BME280;68717;53.040;18.488;2023-08-20T00:49:03;101475.53;;;21.61;100.00
53619;BME280;68717;53.040;18.488;2023-08-20T00:49:17;101481.00;;;21.61;100.00
53619;BME280;68717;53.040;18.488;2023-08-20T00:49:31;101481.00;;;21.61;100.00
53619;BME280;68717;53.040;18.488;2023-08-20T00:49:45;101475.53;;;21.61;100.00
53619;BME280;68717;53.040;18.488;2023-08-20T00:49:58;101483.72;;;21.61;100.00
53619;BME280;68717;53.040;18.488;2023-08-20T00:50:11;101483.72;;;21.61;100.00
53619;BME280;68717;53.040;18.488;2023-08-20T00:50:24;101483.72;;;21.61;100.00
53619;BME280;68717;53.040;18.488;2023-08-20T00:50:37;101479.28;;;21.60;100.00
53619;BME280;68717;53.040;18.488;2023-08-20T00:50:51;101486.44;;;21.61;100.00
53619;BME280;68717;53.040;18.488;2023-08-20T00:51:04;101480.16;;;21.60;100.00
53619;BME280;68717;53.040;18.488;2023-08-20T00:51:17;101481.00;;;21.61;100.00
53619;BME280;68717;53.040;18.488;2023-08-20T00:51:33;101488.13;;;21.62;100.00
53619;BME280;68717;53.040;18.488;2023-08-20T00:51:46;101483.72;;;21.61;100.00
53619;BME280;68717;53.040;18.488;2023-08-20T00:51:59;101483.72;;;21.61;100.00
53619;BME280;68717;53.040;18.488;2023-08-20T00:52:13;101486.44;;;21.61;100.00
53619;BME280;68717;53.040;18.488;2023-08-20T00:52:28;101480.16;;;21.60;100.00
53619;BME280;68717;53.040;18.488;2023-08-20T00:52:42;101484.72;;;21.60;100.00
53619;BME280;68717;53.040;18.488;2023-08-20T00:52:55;101484.72;;;21.60;100.00
53619;BME280;68717;53.040;18.488;2023-08-20T00:53:10;101484.72;;;21.60;100.00
53619;BME280;68717;53.040;18.488;2023-08-20T00:53:24;101485.59;;;21.60;100.00
53619;BME280;68717;53.040;18.488;2023-08-20T00:53:40;101484.72;;;21.60;100.00
53619;BME280;68717;53.040;18.488;2023-08-20T00:53:52;101488.50;;;21.59;100.00
53619;BME280;68717;53.040;18.488;2023-08-20T00:54:05;101488.50;;;21.59;100.00
53619;BME280;68717;53.040;18.488;2023-08-20T00:54:20;101492.09;;;21.59;100.00
53619;BME280;68717;53.040;18.488;2023-08-20T00:54:32;101483.06;;;21.59;100.00
53619;BME280;68717;53.040;18.488;2023-08-20T00:54:45;101486.81;;;21.58;100.00
53619;BME280;68717;53.040;18.488;2023-08-20T00:54:59;101484.25;;;21.56;100.00
53619;BME280;68717;53.040;18.488;2023-08-20T00:55:12;101485.09;;;21.57;100.00
53619;BME280;68717;53.040;18.488;2023-08-20T00:55:25;101488.84;;;21.55;100.00
53619;BME280;68717;53.040;18.488;2023-08-20T00:55:38;101486.09;;;21.55;100.00
53619;BME280;68717;53.040;18.488;2023-08-20T00:55:51;101493.44;;;21.55;100.00
53619;BME280;68717;53.040;18.488;2023-08-20T00:56:04;101488.00;;;21.55;100.00
53619;BME280;68717;53.040;18.488;2023-08-20T00:56:17;101486.31;;;21.54;100.00
53619;BME280;68717;53.040;18.488;2023-08-20T00:56:31;101485.47;;;21.53;100.00
53619;BME280;68717;53.040;18.488;2023-08-20T00:56:44;101485.47;;;21.53;100.00
53619;BME280;68717;53.040;18.488;2023-08-20T00:56:59;101490.94;;;21.53;100.00
53619;BME280;68717;53.040;18.488;2023-08-20T00:57:13;101482.94;;;21.52;100.00
53619;BME280;68717;53.040;18.488;2023-08-20T00:57:26;101497.59;;;21.51;100.00
53619;BME280;68717;53.040;18.488;2023-08-20T00:57:40;101483.94;;;21.51;100.00
53619;BME280;68717;53.040;18.488;2023-08-20T00:57:53;101489.59;;;21.49;100.00
53619;BME280;68717;53.040;18.488;2023-08-20T00:58:07;101485.00;;;21.50;100.00
53619;BME280;68717;53.040;18.488;2023-08-20T00:58:19;101491.47;;;21.49;100.00
53619;BME280;68717;53.040;18.488;2023-08-20T00:58:32;101483.28;;;21.49;100.00
53619;BME280;68717;53.040;18.488;2023-08-20T00:58:45;101493.34;;;21.48;100.00
53619;BME280;68717;53.040;18.488;2023-08-20T00:58:58;101496.09;;;21.48;100.00
53619;BME280;68717;53.040;18.488;2023-08-20T00:59:11;101497.97;;;21.48;100.00
53619;BME280;68717;53.040;18.488;2023-08-20T00:59:24;101489.78;;;21.48;100.00
53619;BME280;68717;53.040;18.488;2023-08-20T00:59:36;101500.69;;;21.48;100.00
53619;BME280;68717;53.040;18.488;2023-08-20T00:59:50;101491.69;;;21.47;100.00
53619;BME280;68717;53.040;18.488;2023-08-20T01:00:05;101489.97;;;21.46;100.00
53619;BME280;68717;53.040;18.488;2023-08-20T01:00:20;101495.41;;;21.46;100.00
53619;BME280;68717;53.040;18.488;2023-08-20T01:00:35;101489.97;;;21.46;100.00
53619;BME280;68717;53.040;18.488;2023-08-20T01:00:48;101495.41;;;21.46;100.00
53619;BME280;68717;53.040;18.488;2023-08-20T01:01:01;101488.28;;;21.45;100.00
53619;BME280;68717;53.040;18.488;2023-08-20T01:01:13;101496.25;;;21.47;100.00
53619;BME280;68717;53.040;18.488;2023-08-20T01:01:26;101489.97;;;21.46;100.00
53619;BME280;68717;53.040;18.488;2023-08-20T01:01:39;101495.41;;;21.46;100.00
53619;BME280;68717;53.040;18.488;2023-08-20T01:01:52;101498.16;;;21.46;100.00
53619;BME280;68717;53.040;18.488;2023-08-20T01:02:06;101494.56;;;21.46;100.00
53619;BME280;68717;53.040;18.488;2023-08-20T01:02:19;101493.75;;;21.45;100.00
53619;BME280;68717;53.040;18.488;2023-08-20T01:02:32;101495.41;;;21.46;100.00
53619;BME280;68717;53.040;18.488;2023-08-20T01:02:45;101503.59;;;21.46;100.00
53619;BME280;68717;53.040;18.488;2023-08-20T01:02:59;101495.41;;;21.46;100.00
53619;BME280;68717;53.040;18.488;2023-08-20T01:03:12;101492.91;;;21.45;100.00
53619;BME280;68717;53.040;18.488;2023-08-20T01:03:26;101498.34;;;21.45;100.00
53619;BME280;68717;53.040;18.488;2023-08-20T01:03:39;101495.41;;;21.46;100.00
53619;BME280;68717;53.040;18.488;2023-08-20T01:03:51;101494.56;;;21.46;100.00
53619;BME280;68717;53.040;18.488;2023-08-20T01:04:05;101496.47;;;21.45;100.00
53619;BME280;68717;53.040;18.488;2023-08-20T01:04:17;101503.81;;;21.45;100.00
53619;BME280;68717;53.040;18.488;2023-08-20T01:04:30;101493.91;;;21.44;100.00
53619;BME280;68717;53.040;18.488;2023-08-20T01:04:44;101502.94;;;21.44;100.00
53619;BME280;68717;53.040;18.488;2023-08-20T01:04:58;101498.34;;;21.45;100.00
53619;BME280;68717;53.040;18.488;2023-08-20T01:05:11;101494.75;;;21.44;100.00
53619;BME280;68717;53.040;18.488;2023-08-20T01:05:26;101496.47;;;21.45;100.00
53619;BME280;68717;53.040;18.488;2023-08-20T01:05:46;101492.91;;;21.45;100.00
53619;BME280;68717;53.040;18.488;2023-08-20T01:06:07;101493.75;;;21.45;100.00
53619;BME280;68717;53.040;18.488;2023-08-20T01:06:37;101497.47;;;21.44;100.00
53619;BME280;68717;53.040;18.488;2023-08-20T01:06:56;101497.47;;;21.44;100.00
53619;BME280;68717;53.040;18.488;2023-08-20T01:07:15;101492.03;;;21.44;100.00
53619;BME280;68717;53.040;18.488;2023-08-20T01:07:39;101497.47;;;21.44;100.00
53619;BME280;68717;53.040;18.488;2023-08-20T01:08:01;101504.81;;;21.44;100.00
53619;BME280;68717;53.040;18.488;2023-08-20T01:08:26;101501.25;;;21.43;100.00
53619;BME280;68717;53.040;18.488;2023-08-20T01:08:42;101494.09;;;21.42;100.00
53619;BME280;68717;53.040;18.488;2023-08-20T01:09:05;101494.09;;;21.42;100.00
53619;BME280;68717;53.040;18.488;2023-08-20T01:09:26;101497.69;;;21.43;100.00
53619;BME280;68717;53.040;18.488;2023-08-20T01:09:50;101498.72;;;21.42;100.00
53619;BME280;68717;53.040;18.488;2023-08-20T01:10:07;101495.13;;;21.41;100.00
53619;BME280;68717;53.040;18.488;2023-08-20T01:10:27;101500.59;;;21.41;100.00
53619;BME280;68717;53.040;18.488;2023-08-20T01:10:47;101497.03;;;21.41;100.00
53619;BME280;68717;53.040;18.488;2023-08-20T01:11:10;101493.44;;;21.40;100.00
53619;BME280;68717;53.040;18.488;2023-08-20T01:11:30;101501.59;;;21.40;100.00
53619;BME280;68717;53.040;18.488;2023-08-20T01:12:02;101500.78;;;21.40;100.00